sensor_id;sensor_type;location;lat;lon;timestamp;pressure;altitude;pressure_sealevel;temperature;humidity
75650;BME280;64245;51.282;22.494;2022-10-31T00:02:05;99603.03;;;7.25;97.07
75650;BME280;64245;51.282;22.494;2022-10-31T00:04:31;99594.91;;;7.03;96.80
75650;BME280;64245;51.282;22.494;2022-10-31T00:06:56;99603.69;;;7.05;97.21
75650;BME280;64245;51.282;22.494;2022-10-31T00:09:22;99607.94;;;7.08;96.92
75650;BME280;64245;51.282;22.494;2022-10-31T00:11:48;99592.19;;;6.92;96.88
75650;BME280;64245;51.282;22.494;2022-10-31T00:14:14;99596.84;;;7.01;97.21
75650;BME280;64245;51.282;22.494;2022-10-31T00:16:39;99601.53;;;7.10;97.17
75650;BME280;64245;51.282;22.494;2022-10-31T00:19:07;99611.81;;;7.04;96.95
75650;BME280;64245;51.282;22.494;2022-10-31T00:21:34;99604.25;;;6.98;96.59
75650;BME280;64245;51.282;22.494;2022-10-31T00:24:00;99595.41;;;6.84;97.15
75650;BME280;64245;51.282;22.494;2022-10-31T00:26:28;99595.22;;;6.75;97.06
75650;BME280;64245;51.282;22.494;2022-10-31T00:28:54;99608.34;;;6.90;97.78
75650;BME280;64245;51.282;22.494;2022-10-31T00:31:20;99603.03;;;7.25;96.42
75650;BME280;64245;51.282;22.494;2022-10-31T00:33:46;99602.59;;;6.84;96.44
75650;BME280;64245;51.282;22.494;2022-10-31T00:36:17;99616.72;;;6.86;96.84
75650;BME280;64245;51.282;22.494;2022-10-31T00:38:44;99598.75;;;6.51;97.06
75650;BME280;64245;51.282;22.494;2022-10-31T00:41:11;99607.44;;;6.42;97.22
75650;BME280;64245;51.282;22.494;2022-10-31T00:43:37;99599.22;;;6.33;97.78
75650;BME280;64245;51.282;22.494;2022-10-31T00:46:03;99617.00;;;6.34;98.14
75650;BME280;64245;51.282;22.494;2022-10-31T00:48:29;99597.53;;;6.32;98.30
75650;BME280;64245;51.282;22.494;2022-10-31T00:50:55;99616.03;;;6.35;97.98
75650;BME280;64245;51.282;22.494;2022-10-31T00:53:21;99620.69;;;6.44;98.80
75650;BME280;64245;51.282;22.494;2022-10-31T00:55:48;99602.50;;;6.36;99.48
75650;BME280;64245;51.282;22.494;2022-10-31T00:58:17;99596.19;;;6.37;99.73
75650;BME280;64245;51.282;22.494;2022-10-31T01:00:43;99609.47;;;6.39;99.67
75650;BME280;64245;51.282;22.494;2022-10-31T01:03:08;99594.28;;;6.39;100.00
75650;BME280;64245;51.282;22.494;2022-10-31T01:05:34;99599.13;;;6.58;99.47
75650;BME280;64245;51.282;22.494;2022-10-31T01:08:00;99601.91;;;6.69;99.16
75650;BME280;64245;51.282;22.494;2022-10-31T01:10:25;99595.44;;;6.48;98.83
75650;BME280;64245;51.282;22.494;2022-10-31T01:12:51;99608.72;;;6.49;98.55
75650;BME280;64245;51.282;22.494;2022-10-31T01:15:21;99615.19;;;6.58;98.04
75650;BME280;64245;51.282;22.494;2022-10-31T01:17:48;99594.06;;;6.42;98.91
75650;BME280;64245;51.282;22.494;2022-10-31T01:20:15;99608.59;;;6.51;98.92
75650;BME280;64245;51.282;22.494;2022-10-31T01:22:41;99592.28;;;6.30;98.76
75650;BME280;64245;51.282;22.494;2022-10-31T01:25:08;99592.28;;;6.30;98.00
75650;BME280;64245;51.282;22.494;2022-10-31T01:27:35;99600.41;;;6.29;98.49
75650;BME280;64245;51.282;22.494;2022-10-31T01:30:00;99609.94;;;6.33;98.61
75650;BME280;64245;51.282;22.494;2022-10-31T01:32:27;99612.13;;;6.39;98.61
75650;BME280;64245;51.282;22.494;2022-10-31T01:34:54;99622.25;;;6.59;98.20
75650;BME280;64245;51.282;22.494;2022-10-31T01:37:20;99612.34;;;6.48;97.85
75650;BME280;64245;51.282;22.494;2022-10-31T01:39:48;99613.88;;;6.27;97.75
75650;BME280;64245;51.282;22.494;2022-10-31T01:42:21;99600.75;;;6.11;97.84
75650;BME280;64245;51.282;22.494;2022-10-31T01:44:59;99587.03;;;6.16;98.09
75650;BME280;64245;51.282;22.494;2022-10-31T01:47:45;99604.59;;;6.33;97.94
75650;BME280;64245;51.282;22.494;2022-10-31T01:50:18;99619.56;;;6.72;96.62
75650;BME280;64245;51.282;22.494;2022-10-31T01:52:50;99611.13;;;6.65;96.10
75650;BME280;64245;51.282;22.494;2022-10-31T01:55:18;99626.75;;;6.71;96.21
75650;BME280;64245;51.282;22.494;2022-10-31T01:57:48;99623.13;;;6.59;96.11
75650;BME280;64245;51.282;22.494;2022-10-31T02:00:15;99614.06;;;6.49;96.47
75650;BME280;64245;51.282;22.494;2022-10-31T02:02:42;99619.09;;;6.41;96.63
75650;BME280;64245;51.282;22.494;2022-10-31T02:05:10;99618.59;;;5.98;97.10
75650;BME280;64245;51.282;22.494;2022-10-31T02:07:57;99619.75;;;5.69;97.14
75650;BME280;64245;51.282;22.494;2022-10-31T02:10:24;99619.75;;;5.56;97.98
75650;BME280;64245;51.282;22.494;2022-10-31T02:12:52;99608.63;;;5.37;98.00
75650;BME280;64245;51.282;22.494;2022-10-31T02:15:18;99631.56;;;5.39;98.11
75650;BME280;64245;51.282;22.494;2022-10-31T02:17:44;99625.78;;;5.33;98.24
75650;BME280;64245;51.282;22.494;2022-10-31T02:20:22;99632.19;;;5.30;98.44
75650;BME280;64245;51.282;22.494;2022-10-31T02:23:20;99629.22;;;5.35;98.05
75650;BME280;64245;51.282;22.494;2022-10-31T02:34:23;99624.63;;;5.89;97.06
75650;BME280;64245;51.282;22.494;2022-10-31T02:36:58;99636.00;;;5.66;96.55
75650;BME280;64245;51.282;22.494;2022-10-31T02:42:16;99647.97;;;5.20;97.57
75650;BME280;64245;51.282;22.494;2022-10-31T02:48:10;99628.19;;;5.10;97.94
75650;BME280;64245;51.282;22.494;2022-10-31T02:50:40;99626.28;;;5.25;98.26
75650;BME280;64245;51.282;22.494;2022-10-31T02:53:07;99636.75;;;5.68;96.86
75650;BME280;64245;51.282;22.494;2022-10-31T02:58:02;99643.59;;;5.19;97.20
75650;BME280;64245;51.282;22.494;2022-10-31T03:00:37;99629.13;;;5.09;97.69
75650;BME280;64245;51.282;22.494;2022-10-31T03:03:19;99651.88;;;5.42;97.00
75650;BME280;64245;51.282;22.494;2022-10-31T03:08:55;99642.38;;;4.84;97.29
75650;BME280;64245;51.282;22.494;2022-10-31T03:11:31;99629.09;;;4.70;98.01
75650;BME280;64245;51.282;22.494;2022-10-31T03:14:09;99655.00;;;4.68;97.90
75650;BME280;64245;51.282;22.494;2022-10-31T03:16:45;99652.53;;;4.65;98.15
75650;BME280;64245;51.282;22.494;2022-10-31T03:24:13;99642.19;;;4.60;98.02
75650;BME280;64245;51.282;22.494;2022-10-31T03:26:43;99639.13;;;4.52;97.90
75650;BME280;64245;51.282;22.494;2022-10-31T03:29:13;99647.03;;;4.54;97.91
75650;BME280;64245;51.282;22.494;2022-10-31T03:32:08;99639.22;;;4.50;98.43
75650;BME280;64245;51.282;22.494;2022-10-31T03:34:37;99631.69;;;4.43;98.09
75650;BME280;64245;51.282;22.494;2022-10-31T03:37:06;99636.31;;;4.68;98.71
75650;BME280;64245;51.282;22.494;2022-10-31T03:39:33;99638.75;;;4.58;98.19
75650;BME280;64245;51.282;22.494;2022-10-31T03:42:05;99645.22;;;4.54;98.26
75650;BME280;64245;51.282;22.494;2022-10-31T03:44:32;99656.75;;;4.55;98.48
75650;BME280;64245;51.282;22.494;2022-10-31T03:46:59;99646.94;;;4.55;98.65
75650;BME280;64245;51.282;22.494;2022-10-31T03:49:26;99646.94;;;4.55;98.59
75650;BME280;64245;51.282;22.494;2022-10-31T03:51:58;99625.41;;;4.44;98.64
75650;BME280;64245;51.282;22.494;2022-10-31T03:59:55;99641.41;;;4.58;99.99
75650;BME280;64245;51.282;22.494;2022-10-31T04:02:28;99623.50;;;4.46;99.36
75650;BME280;64245;51.282;22.494;2022-10-31T04:04:55;99632.66;;;4.56;99.58
75650;BME280;64245;51.282;22.494;2022-10-31T04:07:22;99641.09;;;4.77;100.00
75650;BME280;64245;51.282;22.494;2022-10-31T04:09:51;99627.75;;;4.77;100.00
75650;BME280;64245;51.282;22.494;2022-10-31T04:12:19;99641.69;;;4.95;100.00
75650;BME280;64245;51.282;22.494;2022-10-31T04:14:47;99646.88;;;5.10;99.84
75650;BME280;64245;51.282;22.494;2022-10-31T04:17:18;99652.88;;;5.14;100.00
75650;BME280;64245;51.282;22.494;2022-10-31T04:19:46;99650.31;;;5.12;99.76
75650;BME280;64245;51.282;22.494;2022-10-31T04:22:12;99628.25;;;4.96;98.81
75650;BME280;64245;51.282;22.494;2022-10-31T04:24:39;99634.38;;;5.11;99.08
75650;BME280;64245;51.282;22.494;2022-10-31T04:27:06;99648.81;;;5.21;99.06
75650;BME280;64245;51.282;22.494;2022-10-31T04:29:31;99653.06;;;5.11;98.52
75650;BME280;64245;51.282;22.494;2022-10-31T04:31:57;99660.81;;;5.01;98.66
75650;BME280;64245;51.282;22.494;2022-10-31T04:34:23;99669.66;;;5.02;98.70
75650;BME280;64245;51.282;22.494;2022-10-31T04:36:49;99653.41;;;4.92;98.68
75650;BME280;64245;51.282;22.494;2022-10-31T04:39:14;99656.56;;;4.84;98.64
75650;BME280;64245;51.282;22.494;2022-10-31T04:41:40;99661.75;;;4.73;98.45
75650;BME280;64245;51.282;22.494;2022-10-31T04:44:06;99668.63;;;4.63;98.67
75650;BME280;64245;51.282;22.494;2022-10-31T04:46:32;99678.34;;;4.64;98.60
75650;BME280;64245;51.282;22.494;2022-10-31T04:48:57;99663.81;;;4.56;98.54
75650;BME280;64245;51.282;22.494;2022-10-31T04:51:23;99678.84;;;4.57;97.97
75650;BME280;64245;51.282;22.494;2022-10-31T04:53:49;99667.88;;;4.47;98.17
75650;BME280;64245;51.282;22.494;2022-10-31T04:56:14;99677.31;;;4.53;98.30
75650;BME280;64245;51.282;22.494;2022-10-31T04:58:40;99680.47;;;4.59;98.49
75650;BME280;64245;51.282;22.494;2022-10-31T05:01:06;99664.19;;;4.49;98.60
75650;BME280;64245;51.282;22.494;2022-10-31T05:03:31;99676.81;;;5.01;98.06
75650;BME280;64245;51.282;22.494;2022-10-31T05:05:57;99692.69;;;4.90;97.21
75650;BME280;64245;51.282;22.494;2022-10-31T05:08:23;99678.16;;;4.67;97.37
75650;BME280;64245;51.282;22.494;2022-10-31T05:10:48;99679.81;;;4.41;97.49
75650;BME280;64245;51.282;22.494;2022-10-31T05:13:14;99680.75;;;4.26;98.08
75650;BME280;64245;51.282;22.494;2022-10-31T05:15:40;99696.66;;;4.28;98.16
75650;BME280;64245;51.282;22.494;2022-10-31T05:18:07;99680.66;;;4.13;98.20
75650;BME280;64245;51.282;22.494;2022-10-31T05:20:32;99688.94;;;4.09;98.42
75650;BME280;64245;51.282;22.494;2022-10-31T05:22:58;99707.81;;;4.20;98.97
75650;BME280;64245;51.282;22.494;2022-10-31T05:25:26;99689.25;;;4.19;99.04
75650;BME280;64245;51.282;22.494;2022-10-31T05:27:54;99694.00;;;4.28;99.28
75650;BME280;64245;51.282;22.494;2022-10-31T05:30:28;99710.28;;;4.37;99.02
75650;BME280;64245;51.282;22.494;2022-10-31T05:32:54;99706.09;;;4.47;98.95
75650;BME280;64245;51.282;22.494;2022-10-31T05:35:22;99694.28;;;4.51;98.75
75650;BME280;64245;51.282;22.494;2022-10-31T05:37:48;99685.78;;;4.45;98.69
75650;BME280;64245;51.282;22.494;2022-10-31T05:40:16;99697.72;;;4.54;98.12
75650;BME280;64245;51.282;22.494;2022-10-31T05:42:42;99696.66;;;4.56;98.01
75650;BME280;64245;51.282;22.494;2022-10-31T05:45:11;99709.00;;;4.85;98.37
75650;BME280;64245;51.282;22.494;2022-10-31T05:47:37;99702.44;;;4.63;97.60
75650;BME280;64245;51.282;22.494;2022-10-31T05:50:04;99718.28;;;4.51;97.81
75650;BME280;64245;51.282;22.494;2022-10-31T05:52:29;99711.69;;;4.43;98.23
75650;BME280;64245;51.282;22.494;2022-10-31T05:54:55;99696.97;;;4.37;98.29
75650;BME280;64245;51.282;22.494;2022-10-31T05:57:21;99707.63;;;4.37;98.35
75650;BME280;64245;51.282;22.494;2022-10-31T05:59:47;99723.44;;;4.40;98.07
75650;BME280;64245;51.282;22.494;2022-10-31T06:02:12;99738.19;;;4.46;98.11
75650;BME280;64245;51.282;22.494;2022-10-31T06:04:38;99738.94;;;4.48;98.44
75650;BME280;64245;51.282;22.494;2022-10-31T06:07:03;99730.75;;;4.79;98.50
75650;BME280;64245;51.282;22.494;2022-10-31T06:09:29;99738.41;;;5.12;97.43
75650;BME280;64245;51.282;22.494;2022-10-31T06:11:55;99720.81;;;4.96;96.72
75650;BME280;64245;51.282;22.494;2022-10-31T06:14:21;99742.69;;;5.01;97.55
75650;BME280;64245;51.282;22.494;2022-10-31T06:16:46;99730.75;;;4.79;97.61
75650;BME280;64245;51.282;22.494;2022-10-31T06:19:12;99754.09;;;4.76;97.87
75650;BME280;64245;51.282;22.494;2022-10-31T06:21:38;99747.03;;;4.75;97.75
75650;BME280;64245;51.282;22.494;2022-10-31T06:24:04;99744.75;;;5.24;97.44
75650;BME280;64245;51.282;22.494;2022-10-31T06:26:29;99748.59;;;5.47;96.42
75650;BME280;64245;51.282;22.494;2022-10-31T06:28:55;99751.06;;;5.50;96.70
75650;BME280;64245;51.282;22.494;2022-10-31T06:31:21;99735.44;;;5.44;97.17
75650;BME280;64245;51.282;22.494;2022-10-31T06:33:47;99747.72;;;5.46;97.11
75650;BME280;64245;51.282;22.494;2022-10-31T06:36:12;99734.16;;;5.22;97.39
75650;BME280;64245;51.282;22.494;2022-10-31T06:38:38;99733.06;;;5.39;97.60
75650;BME280;64245;51.282;22.494;2022-10-31T06:41:05;99748.59;;;5.47;98.39
75650;BME280;64245;51.282;22.494;2022-10-31T06:43:31;99743.25;;;5.47;98.14
75650;BME280;64245;51.282;22.494;2022-10-31T06:45:57;99753.34;;;5.69;97.88
75650;BME280;64245;51.282;22.494;2022-10-31T06:48:23;99752.25;;;5.59;97.60
75650;BME280;64245;51.282;22.494;2022-10-31T06:50:49;99760.91;;;5.62;98.10
75650;BME280;64245;51.282;22.494;2022-10-31T06:53:15;99749.81;;;5.55;98.36
75650;BME280;64245;51.282;22.494;2022-10-31T06:55:41;99758.50;;;5.72;98.57
75650;BME280;64245;51.282;22.494;2022-10-31T06:58:09;99757.31;;;5.90;99.54
75650;BME280;64245;51.282;22.494;2022-10-31T07:00:35;99750.50;;;6.11;99.37
75650;BME280;64245;51.282;22.494;2022-10-31T07:03:10;99763.34;;;6.32;98.81
75650;BME280;64245;51.282;22.494;2022-10-31T07:05:36;99755.84;;;6.24;97.81
75650;BME280;64245;51.282;22.494;2022-10-31T07:08:05;99757.03;;;6.45;98.34
75650;BME280;64245;51.282;22.494;2022-10-31T07:10:33;99761.94;;;6.64;97.46
75650;BME280;64245;51.282;22.494;2022-10-31T07:13:01;99753.16;;;6.75;97.61
75650;BME280;64245;51.282;22.494;2022-10-31T07:15:29;99736.63;;;6.93;96.16
75650;BME280;64245;51.282;22.494;2022-10-31T07:18:02;99728.09;;;6.76;97.06
75650;BME280;64245;51.282;22.494;2022-10-31T07:20:28;99757.28;;;7.04;97.13
75650;BME280;64245;51.282;22.494;2022-10-31T07:22:54;99752.03;;;7.03;97.30
75650;BME280;64245;51.282;22.494;2022-10-31T07:25:20;99752.00;;;7.15;97.71
75650;BME280;64245;51.282;22.494;2022-10-31T07:27:46;99744.50;;;7.20;98.39
75650;BME280;64245;51.282;22.494;2022-10-31T07:30:13;99743.56;;;7.33;98.37
75650;BME280;64245;51.282;22.494;2022-10-31T07:32:50;99764.25;;;7.67;98.67
75650;BME280;64245;51.282;22.494;2022-10-31T07:35:18;99760.97;;;7.75;98.51
75650;BME280;64245;51.282;22.494;2022-10-31T07:37:44;99770.75;;;8.11;98.00
75650;BME280;64245;51.282;22.494;2022-10-31T07:40:11;99773.84;;;8.28;97.51
75650;BME280;64245;51.282;22.494;2022-10-31T07:42:38;99755.53;;;8.22;97.39
75650;BME280;64245;51.282;22.494;2022-10-31T07:45:05;99750.50;;;8.42;96.79
75650;BME280;64245;51.282;22.494;2022-10-31T07:47:42;99764.53;;;8.68;96.68
75650;BME280;64245;51.282;22.494;2022-10-31T07:50:10;99763.84;;;8.65;98.08
75650;BME280;64245;51.282;22.494;2022-10-31T07:52:36;99752.22;;;8.65;98.43
75650;BME280;64245;51.282;22.494;2022-10-31T07:55:03;99768.94;;;8.91;98.76
75650;BME280;64245;51.282;22.494;2022-10-31T07:57:29;99770.16;;;9.09;97.77
75650;BME280;64245;51.282;22.494;2022-10-31T07:59:54;99756.00;;;9.18;97.85
75650;BME280;64245;51.282;22.494;2022-10-31T08:02:21;99777.72;;;9.38;97.54
75650;BME280;64245;51.282;22.494;2022-10-31T08:04:47;99745.09;;;9.31;97.54
75650;BME280;64245;51.282;22.494;2022-10-31T08:07:13;99766.19;;;9.47;97.04
75650;BME280;64245;51.282;22.494;2022-10-31T08:09:39;99762.25;;;9.62;96.98
75650;BME280;64245;51.282;22.494;2022-10-31T08:12:04;99757.81;;;9.72;96.49
75650;BME280;64245;51.282;22.494;2022-10-31T08:14:30;99765.25;;;9.80;96.03
75650;BME280;64245;51.282;22.494;2022-10-31T08:16:56;99766.56;;;9.85;96.13
75650;BME280;64245;51.282;22.494;2022-10-31T08:19:22;99753.81;;;9.98;95.68
75650;BME280;64245;51.282;22.494;2022-10-31T08:21:51;99746.84;;;9.96;95.89
75650;BME280;64245;51.282;22.494;2022-10-31T08:24:18;99753.00;;;10.08;95.08
75650;BME280;64245;51.282;22.494;2022-10-31T08:26:44;99770.78;;;10.31;93.79
75650;BME280;64245;51.282;22.494;2022-10-31T08:29:09;99744.00;;;10.29;93.68
75650;BME280;64245;51.282;22.494;2022-10-31T08:31:35;99752.66;;;10.33;94.33
75650;BME280;64245;51.282;22.494;2022-10-31T08:34:01;99752.31;;;10.47;93.63
75650;BME280;64245;51.282;22.494;2022-10-31T08:36:27;99764.19;;;10.65;92.58
75650;BME280;64245;51.282;22.494;2022-10-31T08:38:53;99752.56;;;10.65;92.90
75650;BME280;64245;51.282;22.494;2022-10-31T08:41:19;99735.25;;;10.58;94.13
75650;BME280;64245;51.282;22.494;2022-10-31T08:43:45;99750.09;;;10.83;93.31
75650;BME280;64245;51.282;22.494;2022-10-31T08:46:11;99760.16;;;11.11;91.75
75650;BME280;64245;51.282;22.494;2022-10-31T08:48:37;99766.00;;;11.26;88.87
75650;BME280;64245;51.282;22.494;2022-10-31T08:51:03;99765.03;;;11.27;90.81
75650;BME280;64245;51.282;22.494;2022-10-31T08:53:29;99763.03;;;11.29;90.43
75650;BME280;64245;51.282;22.494;2022-10-31T08:55:55;99763.06;;;11.38;91.03
75650;BME280;64245;51.282;22.494;2022-10-31T08:58:22;99765.03;;;11.36;90.12
75650;BME280;64245;51.282;22.494;2022-10-31T09:00:51;99771.31;;;11.47;91.52
75650;BME280;64245;51.282;22.494;2022-10-31T09:03:25;99768.41;;;11.79;88.99
75650;BME280;64245;51.282;22.494;2022-10-31T09:05:54;99764.16;;;11.76;87.84
75650;BME280;64245;51.282;22.494;2022-10-31T09:08:20;99756.03;;;11.66;88.09
75650;BME280;64245;51.282;22.494;2022-10-31T09:10:46;99769.41;;;11.77;86.10
75650;BME280;64245;51.282;22.494;2022-10-31T09:13:14;99749.78;;;11.75;87.00
75650;BME280;64245;51.282;22.494;2022-10-31T09:15:42;99769.56;;;11.95;85.62
75650;BME280;64245;51.282;22.494;2022-10-31T09:18:09;99756.38;;;11.92;88.16
75650;BME280;64245;51.282;22.494;2022-10-31T09:20:37;99769.00;;;12.01;89.71
75650;BME280;64245;51.282;22.494;2022-10-31T09:23:05;99752.94;;;12.19;82.72
75650;BME280;64245;51.282;22.494;2022-10-31T09:25:33;99779.94;;;12.48;86.51
75650;BME280;64245;51.282;22.494;2022-10-31T09:28:00;99771.63;;;12.69;84.01
75650;BME280;64245;51.282;22.494;2022-10-31T09:30:28;99762.22;;;12.73;83.22
75650;BME280;64245;51.282;22.494;2022-10-31T09:32:55;99777.78;;;13.08;81.28
75650;BME280;64245;51.282;22.494;2022-10-31T09:35:22;99779.28;;;13.10;80.41
75650;BME280;64245;51.282;22.494;2022-10-31T09:37:56;99752.56;;;13.07;82.87
75650;BME280;64245;51.282;22.494;2022-10-31T09:40:39;99773.25;;;13.36;80.30
75650;BME280;64245;51.282;22.494;2022-10-31T09:43:43;99773.09;;;13.37;80.20
75650;BME280;64245;51.282;22.494;2022-10-31T09:51:29;99779.13;;;13.76;77.55
75650;BME280;64245;51.282;22.494;2022-10-31T09:54:02;99780.38;;;13.82;78.63
75650;BME280;64245;51.282;22.494;2022-10-31T09:56:31;99774.56;;;14.12;77.66
75650;BME280;64245;51.282;22.494;2022-10-31T09:59:00;99769.84;;;14.14;76.40
75650;BME280;64245;51.282;22.494;2022-10-31T10:01:38;99784.69;;;14.46;76.46
75650;BME280;64245;51.282;22.494;2022-10-31T10:07:54;99778.16;;;14.74;75.57
75650;BME280;64245;51.282;22.494;2022-10-31T10:09:52;99781.50;;;15.62;73.28
75650;BME280;64245;51.282;22.494;2022-10-31T10:15:45;99792.31;;;16.37;70.26
75650;BME280;64245;51.282;22.494;2022-10-31T10:23:57;99793.19;;;16.53;69.55
75650;BME280;64245;51.282;22.494;2022-10-31T10:26:41;99789.72;;;17.16;66.20
75650;BME280;64245;51.282;22.494;2022-10-31T10:29:28;99797.31;;;16.74;68.22
75650;BME280;64245;51.282;22.494;2022-10-31T10:32:00;99770.66;;;17.16;68.79
75650;BME280;64245;51.282;22.494;2022-10-31T10:34:35;99785.88;;;17.42;65.81
75650;BME280;64245;51.282;22.494;2022-10-31T10:37:17;99795.75;;;16.87;66.82
75650;BME280;64245;51.282;22.494;2022-10-31T10:39:49;99786.97;;;18.03;62.24
75650;BME280;64245;51.282;22.494;2022-10-31T10:42:16;99783.59;;;18.46;60.12
75650;BME280;64245;51.282;22.494;2022-10-31T10:45:13;99770.59;;;18.71;58.66
75650;BME280;64245;51.282;22.494;2022-10-31T10:50:50;99773.41;;;18.63;59.65
75650;BME280;64245;51.282;22.494;2022-10-31T10:53:33;99781.69;;;19.51;57.11
75650;BME280;64245;51.282;22.494;2022-10-31T10:56:15;99784.25;;;18.03;60.70
75650;BME280;64245;51.282;22.494;2022-10-31T10:58:42;99771.44;;;18.49;58.26
75650;BME280;64245;51.282;22.494;2022-10-31T11:01:14;99775.69;;;17.83;60.78
75650;BME280;64245;51.282;22.494;2022-10-31T11:03:40;99777.03;;;17.87;63.59
75650;BME280;64245;51.282;22.494;2022-10-31T11:06:19;99785.34;;;16.99;66.42
75650;BME280;64245;51.282;22.494;2022-10-31T11:08:48;99794.09;;;17.73;63.79
75650;BME280;64245;51.282;22.494;2022-10-31T11:11:23;99790.16;;;18.29;62.10
75650;BME280;64245;51.282;22.494;2022-10-31T11:13:57;99770.91;;;19.06;58.75
75650;BME280;64245;51.282;22.494;2022-10-31T11:18:50;99778.53;;;20.20;54.88
75650;BME280;64245;51.282;22.494;2022-10-31T11:21:26;99778.19;;;20.72;53.56
75650;BME280;64245;51.282;22.494;2022-10-31T11:26:34;99780.59;;;18.56;58.94
75650;BME280;64245;51.282;22.494;2022-10-31T11:29:01;99772.09;;;18.51;59.48
75650;BME280;64245;51.282;22.494;2022-10-31T11:31:28;99774.00;;;18.05;61.45
75650;BME280;64245;51.282;22.494;2022-10-31T11:34:01;99773.16;;;18.04;62.05
75650;BME280;64245;51.282;22.494;2022-10-31T11:36:31;99779.59;;;17.41;63.72
75650;BME280;64245;51.282;22.494;2022-10-31T11:38:59;99771.06;;;18.52;60.16
75650;BME280;64245;51.282;22.494;2022-10-31T11:41:35;99783.38;;;18.48;60.63
75650;BME280;64245;51.282;22.494;2022-10-31T11:46:37;99787.47;;;17.28;63.40
75650;BME280;64245;51.282;22.494;2022-10-31T11:49:05;99762.44;;;17.33;63.59
75650;BME280;64245;51.282;22.494;2022-10-31T11:51:36;99769.63;;;17.17;64.17
75650;BME280;64245;51.282;22.494;2022-10-31T11:54:04;99782.47;;;16.60;66.91
75650;BME280;64245;51.282;22.494;2022-10-31T11:56:38;99772.03;;;15.82;68.63
75650;BME280;64245;51.282;22.494;2022-10-31T12:01:49;99769.72;;;16.04;67.68
75650;BME280;64245;51.282;22.494;2022-10-31T12:04:16;99770.00;;;15.84;69.47
75650;BME280;64245;51.282;22.494;2022-10-31T12:06:45;99772.59;;;16.02;68.55
75650;BME280;64245;51.282;22.494;2022-10-31T12:09:28;99769.00;;;15.77;69.84
75650;BME280;64245;51.282;22.494;2022-10-31T12:17:35;99762.91;;;17.44;63.78
75650;BME280;64245;51.282;22.494;2022-10-31T12:31:04;99775.25;;;17.16;63.09
75650;BME280;64245;51.282;22.494;2022-10-31T12:39:33;99768.72;;;16.29;66.84
75650;BME280;64245;51.282;22.494;2022-10-31T12:58:45;99756.56;;;14.91;72.86
75650;BME280;64245;51.282;22.494;2022-10-31T13:01:16;99771.66;;;14.67;73.50
75650;BME280;64245;51.282;22.494;2022-10-31T13:04:03;99775.00;;;14.26;75.98
75650;BME280;64245;51.282;22.494;2022-10-31T13:06:36;99760.22;;;14.56;74.44
75650;BME280;64245;51.282;22.494;2022-10-31T13:09:08;99762.00;;;14.47;75.22
75650;BME280;64245;51.282;22.494;2022-10-31T13:11:40;99768.75;;;14.25;75.90
75650;BME280;64245;51.282;22.494;2022-10-31T13:14:31;99753.00;;;14.03;76.75
75650;BME280;64245;51.282;22.494;2022-10-31T13:16:59;99756.00;;;14.00;77.25
75650;BME280;64245;51.282;22.494;2022-10-31T13:19:31;99759.56;;;14.00;76.41
75650;BME280;64245;51.282;22.494;2022-10-31T13:22:06;99765.19;;;14.07;76.84
75650;BME280;64245;51.282;22.494;2022-10-31T13:24:38;99779.53;;;13.99;77.21
75650;BME280;64245;51.282;22.494;2022-10-31T13:27:22;99761.63;;;13.89;77.52
75650;BME280;64245;51.282;22.494;2022-10-31T13:33:31;99750.66;;;13.72;78.61
75650;BME280;64245;51.282;22.494;2022-10-31T13:38:20;99761.31;;;13.74;78.78
75650;BME280;64245;51.282;22.494;2022-10-31T13:40:58;99754.34;;;13.54;79.80
75650;BME280;64245;51.282;22.494;2022-10-31T13:43:33;99761.00;;;13.59;79.46
75650;BME280;64245;51.282;22.494;2022-10-31T13:45:59;99764.97;;;13.37;80.08
75650;BME280;64245;51.282;22.494;2022-10-31T13:50:59;99758.00;;;13.35;80.05
75650;BME280;64245;51.282;22.494;2022-10-31T13:56:22;99766.91;;;13.27;81.07
75650;BME280;64245;51.282;22.494;2022-10-31T14:01:46;99756.22;;;12.89;82.28
75650;BME280;64245;51.282;22.494;2022-10-31T14:04:26;99771.75;;;13.14;82.48
75650;BME280;64245;51.282;22.494;2022-10-31T14:07:07;99757.34;;;12.86;82.16
75650;BME280;64245;51.282;22.494;2022-10-31T14:09:37;99770.66;;;13.07;81.75
75650;BME280;64245;51.282;22.494;2022-10-31T14:12:08;99764.06;;;12.72;83.23
75650;BME280;64245;51.282;22.494;2022-10-31T14:14:44;99757.88;;;12.43;84.39
75650;BME280;64245;51.282;22.494;2022-10-31T14:17:26;99767.28;;;12.49;84.53
75650;BME280;64245;51.282;22.494;2022-10-31T14:20:02;99767.69;;;12.34;84.66
75650;BME280;64245;51.282;22.494;2022-10-31T14:22:33;99764.28;;;12.32;84.66
75650;BME280;64245;51.282;22.494;2022-10-31T14:24:58;99768.72;;;12.24;85.41
75650;BME280;64245;51.282;22.494;2022-10-31T14:29:50;99749.78;;;12.43;84.14
75650;BME280;64245;51.282;22.494;2022-10-31T14:32:23;99742.00;;;12.21;84.73
75650;BME280;64245;51.282;22.494;2022-10-31T14:37:32;99771.13;;;12.17;85.14
75650;BME280;64245;51.282;22.494;2022-10-31T14:48:38;99759.13;;;11.62;87.36
75650;BME280;64245;51.282;22.494;2022-10-31T14:51:12;99743.59;;;11.25;88.91
75650;BME280;64245;51.282;22.494;2022-10-31T14:56:12;99740.31;;;11.22;89.14
75650;BME280;64245;51.282;22.494;2022-10-31T14:58:41;99748.41;;;11.22;89.60
75650;BME280;64245;51.282;22.494;2022-10-31T15:01:21;99757.59;;;11.10;90.72
75650;BME280;64245;51.282;22.494;2022-10-31T15:03:47;99760.97;;;11.02;90.72
75650;BME280;64245;51.282;22.494;2022-10-31T15:06:15;99760.22;;;10.90;91.37
75650;BME280;64245;51.282;22.494;2022-10-31T15:11:17;99747.63;;;10.70;92.06
75650;BME280;64245;51.282;22.494;2022-10-31T15:13:48;99748.88;;;10.66;92.09
75650;BME280;64245;51.282;22.494;2022-10-31T15:16:17;99749.88;;;10.65;91.16
75650;BME280;64245;51.282;22.494;2022-10-31T15:18:47;99756.31;;;10.73;90.97
75650;BME280;64245;51.282;22.494;2022-10-31T15:21:16;99730.97;;;10.55;91.45